sensor_id;sensor_type;location;lat;lon;timestamp;temperature;humidity
69543;SHT31;56762;49.494;11.768;2023-02-03T00:00:06;2.64;93.95
69543;SHT31;56762;49.494;11.768;2023-02-03T00:02:34;2.75;94.18
69543;SHT31;56762;49.494;11.768;2023-02-03T00:05:02;2.83;94.01
69543;SHT31;56762;49.494;11.768;2023-02-03T00:07:30;3.03;94.26
69543;SHT31;56762;49.494;11.768;2023-02-03T00:09:57;3.10;93.68
69543;SHT31;56762;49.494;11.768;2023-02-03T00:12:25;3.14;93.56
69543;SHT31;56762;49.494;11.768;2023-02-03T00:14:54;3.21;93.65
69543;SHT31;56762;49.494;11.768;2023-02-03T00:17:22;3.25;93.66
69543;SHT31;56762;49.494;11.768;2023-02-03T00:19:50;3.31;93.76
69543;SHT31;56762;49.494;11.768;2023-02-03T00:22:17;3.34;93.32
69543;SHT31;56762;49.494;11.768;2023-02-03T00:24:45;3.38;93.97
69543;SHT31;56762;49.494;11.768;2023-02-03T00:27:13;3.56;93.28
69543;SHT31;56762;49.494;11.768;2023-02-03T00:29:41;3.52;93.11
69543;SHT31;56762;49.494;11.768;2023-02-03T00:32:10;3.55;92.89
69543;SHT31;56762;49.494;11.768;2023-02-03T00:34:38;3.54;92.66
69543;SHT31;56762;49.494;11.768;2023-02-03T00:37:05;3.58;92.89
69543;SHT31;56762;49.494;11.768;2023-02-03T00:39:35;3.59;92.97
69543;SHT31;56762;49.494;11.768;2023-02-03T00:42:03;3.63;92.93
69543;SHT31;56762;49.494;11.768;2023-02-03T00:44:31;3.66;92.96
69543;SHT31;56762;49.494;11.768;2023-02-03T00:46:59;3.69;92.58
69543;SHT31;56762;49.494;11.768;2023-02-03T00:49:28;3.68;92.93
69543;SHT31;56762;49.494;11.768;2023-02-03T00:51:56;3.68;92.57
69543;SHT31;56762;49.494;11.768;2023-02-03T00:54:23;3.70;92.96
69543;SHT31;56762;49.494;11.768;2023-02-03T00:56:51;3.72;92.62
69543;SHT31;56762;49.494;11.768;2023-02-03T00:59:19;3.75;92.55
69543;SHT31;56762;49.494;11.768;2023-02-03T01:01:47;3.73;92.56
69543;SHT31;56762;49.494;11.768;2023-02-03T01:04:15;3.78;92.25
69543;SHT31;56762;49.494;11.768;2023-02-03T01:06:44;3.76;92.29
69543;SHT31;56762;49.494;11.768;2023-02-03T01:09:12;3.75;92.50
69543;SHT31;56762;49.494;11.768;2023-02-03T01:11:39;3.75;92.59
69543;SHT31;56762;49.494;11.768;2023-02-03T01:14:07;3.78;92.07
69543;SHT31;56762;49.494;11.768;2023-02-03T01:16:35;3.78;92.10
69543;SHT31;56762;49.494;11.768;2023-02-03T01:19:04;3.75;92.35
69543;SHT31;56762;49.494;11.768;2023-02-03T01:21:32;3.79;91.92
69543;SHT31;56762;49.494;11.768;2023-02-03T01:24:03;3.83;92.11
69543;SHT31;56762;49.494;11.768;2023-02-03T01:26:30;3.83;91.65
69543;SHT31;56762;49.494;11.768;2023-02-03T01:28:59;3.76;92.15
69543;SHT31;56762;49.494;11.768;2023-02-03T01:31:28;3.83;91.86
69543;SHT31;56762;49.494;11.768;2023-02-03T01:33:56;3.93;91.27
69543;SHT31;56762;49.494;11.768;2023-02-03T01:36:27;3.89;91.31
69543;SHT31;56762;49.494;11.768;2023-02-03T01:38:55;3.85;92.07
69543;SHT31;56762;49.494;11.768;2023-02-03T01:41:27;3.82;91.74
69543;SHT31;56762;49.494;11.768;2023-02-03T01:43:57;3.80;92.27
69543;SHT31;56762;49.494;11.768;2023-02-03T01:46:28;3.79;91.95
69543;SHT31;56762;49.494;11.768;2023-02-03T01:49:02;3.79;92.68
69543;SHT31;56762;49.494;11.768;2023-02-03T01:51:31;3.87;92.29
69543;SHT31;56762;49.494;11.768;2023-02-03T01:54:00;3.80;91.81
69543;SHT31;56762;49.494;11.768;2023-02-03T01:56:33;3.85;92.25
69543;SHT31;56762;49.494;11.768;2023-02-03T01:59:02;3.87;92.21
69543;SHT31;56762;49.494;11.768;2023-02-03T02:01:30;3.89;92.30
69543;SHT31;56762;49.494;11.768;2023-02-03T02:04:00;3.85;92.36
69543;SHT31;56762;49.494;11.768;2023-02-03T02:06:30;3.87;92.33
69543;SHT31;56762;49.494;11.768;2023-02-03T02:08:58;3.92;91.89
69543;SHT31;56762;49.494;11.768;2023-02-03T02:11:29;3.86;92.21
69543;SHT31;56762;49.494;11.768;2023-02-03T02:13:59;3.89;92.59
69543;SHT31;56762;49.494;11.768;2023-02-03T02:16:34;3.96;91.83
69543;SHT31;56762;49.494;11.768;2023-02-03T02:19:45;4.01;91.94
69543;SHT31;56762;49.494;11.768;2023-02-03T02:22:23;4.00;92.67
69543;SHT31;56762;49.494;11.768;2023-02-03T02:25:29;3.94;92.24
69543;SHT31;56762;49.494;11.768;2023-02-03T02:28:25;4.00;91.95
69543;SHT31;56762;49.494;11.768;2023-02-03T02:31:39;4.03;91.62
69543;SHT31;56762;49.494;11.768;2023-02-03T02:34:14;4.06;91.69
69543;SHT31;56762;49.494;11.768;2023-02-03T02:36:54;4.04;91.97
69543;SHT31;56762;49.494;11.768;2023-02-03T02:39:33;4.06;92.32
69543;SHT31;56762;49.494;11.768;2023-02-03T02:42:06;3.99;92.32
69543;SHT31;56762;49.494;11.768;2023-02-03T02:44:39;4.07;92.40
69543;SHT31;56762;49.494;11.768;2023-02-03T02:47:15;4.10;92.79
69543;SHT31;56762;49.494;11.768;2023-02-03T02:49:49;4.10;92.24
69543;SHT31;56762;49.494;11.768;2023-02-03T02:52:20;4.16;92.22
69543;SHT31;56762;49.494;11.768;2023-02-03T02:54:52;4.20;91.99
69543;SHT31;56762;49.494;11.768;2023-02-03T02:57:23;4.11;92.91
69543;SHT31;56762;49.494;11.768;2023-02-03T02:59:52;4.18;92.55
69543;SHT31;56762;49.494;11.768;2023-02-03T03:02:30;4.29;91.97
69543;SHT31;56762;49.494;11.768;2023-02-03T03:04:58;4.23;91.70
69543;SHT31;56762;49.494;11.768;2023-02-03T03:07:26;4.21;92.37
69543;SHT31;56762;49.494;11.768;2023-02-03T03:09:58;4.18;92.57
69543;SHT31;56762;49.494;11.768;2023-02-03T03:12:31;4.18;92.30
69543;SHT31;56762;49.494;11.768;2023-02-03T03:15:03;4.24;92.09
69543;SHT31;56762;49.494;11.768;2023-02-03T03:17:38;4.27;92.09
69543;SHT31;56762;49.494;11.768;2023-02-03T03:20:09;4.33;92.31
69543;SHT31;56762;49.494;11.768;2023-02-03T03:22:45;4.31;91.67
69543;SHT31;56762;49.494;11.768;2023-02-03T03:25:16;4.37;91.39
69543;SHT31;56762;49.494;11.768;2023-02-03T03:27:48;4.33;91.85
69543;SHT31;56762;49.494;11.768;2023-02-03T03:30:22;4.29;92.07
69543;SHT31;56762;49.494;11.768;2023-02-03T03:32:54;4.34;92.31
69543;SHT31;56762;49.494;11.768;2023-02-03T03:35:29;4.31;92.36
69543;SHT31;56762;49.494;11.768;2023-02-03T03:38:05;4.38;91.75
69543;SHT31;56762;49.494;11.768;2023-02-03T03:40:37;4.31;91.92
69543;SHT31;56762;49.494;11.768;2023-02-03T03:43:11;4.31;92.26
69543;SHT31;56762;49.494;11.768;2023-02-03T03:45:44;4.36;92.44
69543;SHT31;56762;49.494;11.768;2023-02-03T03:48:19;4.37;92.53
69543;SHT31;56762;49.494;11.768;2023-02-03T03:50:50;4.44;92.18
69543;SHT31;56762;49.494;11.768;2023-02-03T03:53:22;4.45;91.94
69543;SHT31;56762;49.494;11.768;2023-02-03T03:55:51;4.37;91.94
69543;SHT31;56762;49.494;11.768;2023-02-03T03:58:22;4.41;91.81
69543;SHT31;56762;49.494;11.768;2023-02-03T04:00:53;4.36;92.29
69543;SHT31;56762;49.494;11.768;2023-02-03T04:03:25;4.38;92.10
69543;SHT31;56762;49.494;11.768;2023-02-03T04:05:54;4.37;92.28
69543;SHT31;56762;49.494;11.768;2023-02-03T04:08:23;4.38;92.43
69543;SHT31;56762;49.494;11.768;2023-02-03T04:10:50;4.34;92.11
69543;SHT31;56762;49.494;11.768;2023-02-03T04:13:18;4.36;92.49
69543;SHT31;56762;49.494;11.768;2023-02-03T04:15:46;4.40;91.92
69543;SHT31;56762;49.494;11.768;2023-02-03T04:18:14;4.38;92.15
69543;SHT31;56762;49.494;11.768;2023-02-03T04:20:44;4.40;92.48
69543;SHT31;56762;49.494;11.768;2023-02-03T04:23:11;4.38;92.18
69543;SHT31;56762;49.494;11.768;2023-02-03T04:25:39;4.44;92.09
69543;SHT31;56762;49.494;11.768;2023-02-03T04:28:07;4.42;91.57
69543;SHT31;56762;49.494;11.768;2023-02-03T04:30:35;4.42;91.58
69543;SHT31;56762;49.494;11.768;2023-02-03T04:33:03;4.48;91.53
69543;SHT31;56762;49.494;11.768;2023-02-03T04:35:31;4.50;91.45
69543;SHT31;56762;49.494;11.768;2023-02-03T04:38:00;4.48;91.98
69543;SHT31;56762;49.494;11.768;2023-02-03T04:40:28;4.40;92.17
69543;SHT31;56762;49.494;11.768;2023-02-03T04:42:55;4.45;91.69
69543;SHT31;56762;49.494;11.768;2023-02-03T04:45:23;4.47;91.63
69543;SHT31;56762;49.494;11.768;2023-02-03T04:47:51;4.44;91.81
69543;SHT31;56762;49.494;11.768;2023-02-03T04:50:20;4.48;91.48
69543;SHT31;56762;49.494;11.768;2023-02-03T04:52:48;4.54;91.57
69543;SHT31;56762;49.494;11.768;2023-02-03T04:55:17;4.54;91.56
69543;SHT31;56762;49.494;11.768;2023-02-03T04:57:45;4.58;91.04
69543;SHT31;56762;49.494;11.768;2023-02-03T05:00:13;4.57;91.41
69543;SHT31;56762;49.494;11.768;2023-02-03T05:02:41;4.52;91.52
69543;SHT31;56762;49.494;11.768;2023-02-03T05:05:09;4.60;91.40
69543;SHT31;56762;49.494;11.768;2023-02-03T05:07:36;4.61;91.45
69543;SHT31;56762;49.494;11.768;2023-02-03T05:10:05;4.58;91.32
69543;SHT31;56762;49.494;11.768;2023-02-03T05:12:34;4.58;91.16
69543;SHT31;56762;49.494;11.768;2023-02-03T05:15:02;4.61;91.29
69543;SHT31;56762;49.494;11.768;2023-02-03T05:17:30;4.54;91.42
69543;SHT31;56762;49.494;11.768;2023-02-03T05:19:58;4.47;91.64
69543;SHT31;56762;49.494;11.768;2023-02-03T05:22:25;4.44;91.89
69543;SHT31;56762;49.494;11.768;2023-02-03T05:24:53;4.47;92.10
69543;SHT31;56762;49.494;11.768;2023-02-03T05:27:21;4.41;92.44
69543;SHT31;56762;49.494;11.768;2023-02-03T05:29:50;4.47;92.25
69543;SHT31;56762;49.494;11.768;2023-02-03T05:32:17;4.50;92.10
69543;SHT31;56762;49.494;11.768;2023-02-03T05:34:46;4.48;92.30
69543;SHT31;56762;49.494;11.768;2023-02-03T05:37:13;4.51;91.93
69543;SHT31;56762;49.494;11.768;2023-02-03T05:39:41;4.50;91.82
69543;SHT31;56762;49.494;11.768;2023-02-03T05:42:09;4.52;91.80
69543;SHT31;56762;49.494;11.768;2023-02-03T05:44:36;4.52;91.85
69543;SHT31;56762;49.494;11.768;2023-02-03T05:47:04;4.61;91.69
69543;SHT31;56762;49.494;11.768;2023-02-03T05:49:32;4.57;91.52
69543;SHT31;56762;49.494;11.768;2023-02-03T05:52:00;4.54;91.43
69543;SHT31;56762;49.494;11.768;2023-02-03T05:54:28;4.54;91.39
69543;SHT31;56762;49.494;11.768;2023-02-03T05:56:55;4.61;90.81
69543;SHT31;56762;49.494;11.768;2023-02-03T05:59:23;4.62;91.19
69543;SHT31;56762;49.494;11.768;2023-02-03T06:01:51;4.58;91.12
69543;SHT31;56762;49.494;11.768;2023-02-03T06:04:20;4.58;91.32
69543;SHT31;56762;49.494;11.768;2023-02-03T06:06:48;4.60;90.86
69543;SHT31;56762;49.494;11.768;2023-02-03T06:09:15;4.55;91.41
69543;SHT31;56762;49.494;11.768;2023-02-03T06:11:43;4.57;91.07
69543;SHT31;56762;49.494;11.768;2023-02-03T06:14:11;4.57;91.30
69543;SHT31;56762;49.494;11.768;2023-02-03T06:16:40;4.57;91.05
69543;SHT31;56762;49.494;11.768;2023-02-03T06:19:08;4.54;91.75
69543;SHT31;56762;49.494;11.768;2023-02-03T06:21:37;4.55;91.29
69543;SHT31;56762;49.494;11.768;2023-02-03T06:24:05;4.57;91.51
69543;SHT31;56762;49.494;11.768;2023-02-03T06:26:33;4.55;91.57
69543;SHT31;56762;49.494;11.768;2023-02-03T06:29:01;4.58;91.19
69543;SHT31;56762;49.494;11.768;2023-02-03T06:31:29;4.52;91.15
69543;SHT31;56762;49.494;11.768;2023-02-03T06:33:57;4.62;90.62
69543;SHT31;56762;49.494;11.768;2023-02-03T06:36:28;4.57;91.23
69543;SHT31;56762;49.494;11.768;2023-02-03T06:38:57;4.55;91.30
69543;SHT31;56762;49.494;11.768;2023-02-03T06:41:24;4.54;91.28
69543;SHT31;56762;49.494;11.768;2023-02-03T06:43:56;4.54;91.21
69543;SHT31;56762;49.494;11.768;2023-02-03T06:46:23;4.55;91.19
69543;SHT31;56762;49.494;11.768;2023-02-03T06:48:55;4.67;90.53
69543;SHT31;56762;49.494;11.768;2023-02-03T06:51:23;4.61;90.32
69543;SHT31;56762;49.494;11.768;2023-02-03T06:53:51;4.72;89.69
69543;SHT31;56762;49.494;11.768;2023-02-03T06:56:20;4.61;90.22
69543;SHT31;56762;49.494;11.768;2023-02-03T06:58:48;4.62;91.02
69543;SHT31;56762;49.494;11.768;2023-02-03T07:01:16;4.67;90.01
69543;SHT31;56762;49.494;11.768;2023-02-03T07:03:44;4.60;90.46
69543;SHT31;56762;49.494;11.768;2023-02-03T07:06:13;4.67;89.86
69543;SHT31;56762;49.494;11.768;2023-02-03T07:08:42;4.60;90.84
69543;SHT31;56762;49.494;11.768;2023-02-03T07:11:10;4.64;90.09
69543;SHT31;56762;49.494;11.768;2023-02-03T07:13:40;4.65;90.08
69543;SHT31;56762;49.494;11.768;2023-02-03T07:16:08;4.64;90.73
69543;SHT31;56762;49.494;11.768;2023-02-03T07:18:36;4.65;90.05
69543;SHT31;56762;49.494;11.768;2023-02-03T07:21:14;4.67;90.37
69543;SHT31;56762;49.494;11.768;2023-02-03T07:23:42;4.65;90.07
69543;SHT31;56762;49.494;11.768;2023-02-03T07:26:10;4.68;90.21
69543;SHT31;56762;49.494;11.768;2023-02-03T07:28:39;4.78;89.77
69543;SHT31;56762;49.494;11.768;2023-02-03T07:31:07;4.79;89.28
69543;SHT31;56762;49.494;11.768;2023-02-03T07:33:37;4.81;89.20
69543;SHT31;56762;49.494;11.768;2023-02-03T07:36:06;4.79;89.08
69543;SHT31;56762;49.494;11.768;2023-02-03T07:38:34;4.76;90.32
69543;SHT31;56762;49.494;11.768;2023-02-03T07:41:03;4.79;89.75
69543;SHT31;56762;49.494;11.768;2023-02-03T07:43:31;4.81;89.95
69543;SHT31;56762;49.494;11.768;2023-02-03T07:46:01;4.76;89.66
69543;SHT31;56762;49.494;11.768;2023-02-03T07:48:28;4.79;89.59
69543;SHT31;56762;49.494;11.768;2023-02-03T07:50:56;4.75;90.21
69543;SHT31;56762;49.494;11.768;2023-02-03T07:53:25;4.78;89.86
69543;SHT31;56762;49.494;11.768;2023-02-03T07:55:53;4.78;90.39
69543;SHT31;56762;49.494;11.768;2023-02-03T07:58:21;4.76;90.49
69543;SHT31;56762;49.494;11.768;2023-02-03T08:00:49;4.83;89.68
69543;SHT31;56762;49.494;11.768;2023-02-03T08:03:18;4.81;90.13
69543;SHT31;56762;49.494;11.768;2023-02-03T08:05:46;4.85;89.97
69543;SHT31;56762;49.494;11.768;2023-02-03T08:08:14;4.81;90.10
69543;SHT31;56762;49.494;11.768;2023-02-03T08:10:42;4.83;89.39
69543;SHT31;56762;49.494;11.768;2023-02-03T08:13:09;4.88;89.15
69543;SHT31;56762;49.494;11.768;2023-02-03T08:15:37;4.85;89.97
69543;SHT31;56762;49.494;11.768;2023-02-03T08:18:05;4.88;89.36
69543;SHT31;56762;49.494;11.768;2023-02-03T08:20:36;4.89;89.49
69543;SHT31;56762;49.494;11.768;2023-02-03T08:23:04;4.88;89.45
69543;SHT31;56762;49.494;11.768;2023-02-03T08:25:32;4.91;89.01
69543;SHT31;56762;49.494;11.768;2023-02-03T08:28:00;5.02;88.47
69543;SHT31;56762;49.494;11.768;2023-02-03T08:30:28;4.93;88.73
69543;SHT31;56762;49.494;11.768;2023-02-03T08:32:57;4.96;88.37
69543;SHT31;56762;49.494;11.768;2023-02-03T08:35:25;4.96;88.57
69543;SHT31;56762;49.494;11.768;2023-02-03T08:37:54;4.92;89.13
69543;SHT31;56762;49.494;11.768;2023-02-03T08:40:22;4.93;89.34
69543;SHT31;56762;49.494;11.768;2023-02-03T08:42:50;5.00;88.64
69543;SHT31;56762;49.494;11.768;2023-02-03T08:45:17;4.95;88.47
69543;SHT31;56762;49.494;11.768;2023-02-03T08:47:46;4.96;88.81
69543;SHT31;56762;49.494;11.768;2023-02-03T08:50:13;5.03;88.71
69543;SHT31;56762;49.494;11.768;2023-02-03T08:52:41;5.03;88.94
69543;SHT31;56762;49.494;11.768;2023-02-03T08:55:11;4.96;89.14
69543;SHT31;56762;49.494;11.768;2023-02-03T08:57:39;5.03;88.55
69543;SHT31;56762;49.494;11.768;2023-02-03T09:00:09;4.99;89.02
69543;SHT31;56762;49.494;11.768;2023-02-03T09:02:37;4.92;89.92
69543;SHT31;56762;49.494;11.768;2023-02-03T09:05:05;4.95;90.02
69543;SHT31;56762;49.494;11.768;2023-02-03T09:07:34;4.97;88.70
69543;SHT31;56762;49.494;11.768;2023-02-03T09:10:02;5.03;88.45
69543;SHT31;56762;49.494;11.768;2023-02-03T09:12:32;5.12;88.31
69543;SHT31;56762;49.494;11.768;2023-02-03T09:15:00;5.18;88.10
69543;SHT31;56762;49.494;11.768;2023-02-03T09:17:28;5.16;87.89
69543;SHT31;56762;49.494;11.768;2023-02-03T09:19:55;5.19;88.15
69543;SHT31;56762;49.494;11.768;2023-02-03T09:22:23;5.16;88.34
69543;SHT31;56762;49.494;11.768;2023-02-03T09:24:51;5.24;87.76
69543;SHT31;56762;49.494;11.768;2023-02-03T09:27:19;5.26;87.24
69543;SHT31;56762;49.494;11.768;2023-02-03T09:29:48;5.34;87.23
69543;SHT31;56762;49.494;11.768;2023-02-03T09:32:16;5.32;87.53
69543;SHT31;56762;49.494;11.768;2023-02-03T09:34:45;5.44;87.87
69543;SHT31;56762;49.494;11.768;2023-02-03T09:37:13;5.43;86.84
69543;SHT31;56762;49.494;11.768;2023-02-03T09:39:42;5.44;87.07
69543;SHT31;56762;49.494;11.768;2023-02-03T09:42:42;5.44;87.23
69543;SHT31;56762;49.494;11.768;2023-02-03T09:45:23;5.47;86.73
69543;SHT31;56762;49.494;11.768;2023-02-03T09:47:53;5.48;87.08
69543;SHT31;56762;49.494;11.768;2023-02-03T09:50:25;5.51;86.86
69543;SHT31;56762;49.494;11.768;2023-02-03T09:52:56;5.55;87.10
69543;SHT31;56762;49.494;11.768;2023-02-03T09:55:28;5.60;87.18
69543;SHT31;56762;49.494;11.768;2023-02-03T09:58:02;5.58;86.83
69543;SHT31;56762;49.494;11.768;2023-02-03T10:00:35;5.63;86.48
69543;SHT31;56762;49.494;11.768;2023-02-03T10:03:07;5.61;86.99
69543;SHT31;56762;49.494;11.768;2023-02-03T10:05:52;5.57;86.87
69543;SHT31;56762;49.494;11.768;2023-02-03T10:08:33;5.61;86.79
69543;SHT31;56762;49.494;11.768;2023-02-03T10:11:09;5.63;86.45
69543;SHT31;56762;49.494;11.768;2023-02-03T10:13:51;5.58;87.24
69543;SHT31;56762;49.494;11.768;2023-02-03T10:16:32;5.58;86.60
69543;SHT31;56762;49.494;11.768;2023-02-03T10:19:09;5.61;86.60
69543;SHT31;56762;49.494;11.768;2023-02-03T10:21:42;5.48;87.40
69543;SHT31;56762;49.494;11.768;2023-02-03T10:24:14;5.54;87.35
69543;SHT31;56762;49.494;11.768;2023-02-03T10:26:43;5.58;87.14
69543;SHT31;56762;49.494;11.768;2023-02-03T10:29:17;5.60;86.68
69543;SHT31;56762;49.494;11.768;2023-02-03T10:31:48;5.58;86.70
69543;SHT31;56762;49.494;11.768;2023-02-03T10:34:16;5.65;86.85
69543;SHT31;56762;49.494;11.768;2023-02-03T10:36:53;5.75;86.43
69543;SHT31;56762;49.494;11.768;2023-02-03T10:39:28;5.78;85.65
69543;SHT31;56762;49.494;11.768;2023-02-03T10:41:58;5.70;86.19
69543;SHT31;56762;49.494;11.768;2023-02-03T10:44:32;5.68;86.46
69543;SHT31;56762;49.494;11.768;2023-02-03T10:47:16;5.75;86.21
69543;SHT31;56762;49.494;11.768;2023-02-03T10:49:46;5.77;85.94
69543;SHT31;56762;49.494;11.768;2023-02-03T10:52:30;5.77;86.38
69543;SHT31;56762;49.494;11.768;2023-02-03T10:55:04;5.77;86.24
69543;SHT31;56762;49.494;11.768;2023-02-03T10:57:34;5.70;85.97
69543;SHT31;56762;49.494;11.768;2023-02-03T11:00:07;5.75;86.15
69543;SHT31;56762;49.494;11.768;2023-02-03T11:02:55;5.70;86.44
69543;SHT31;56762;49.494;11.768;2023-02-03T11:05:24;5.67;85.85
69543;SHT31;56762;49.494;11.768;2023-02-03T11:07:53;5.61;86.77
69543;SHT31;56762;49.494;11.768;2023-02-03T11:10:30;5.64;86.76
69543;SHT31;56762;49.494;11.768;2023-02-03T11:13:18;5.70;85.98
69543;SHT31;56762;49.494;11.768;2023-02-03T11:15:54;5.74;85.60
69543;SHT31;56762;49.494;11.768;2023-02-03T11:18:38;5.74;86.14
69543;SHT31;56762;49.494;11.768;2023-02-03T11:21:08;5.81;85.43
69543;SHT31;56762;49.494;11.768;2023-02-03T11:23:47;5.84;85.31
69543;SHT31;56762;49.494;11.768;2023-02-03T11:26:18;5.90;85.07
69543;SHT31;56762;49.494;11.768;2023-02-03T11:28:49;5.92;85.11
69543;SHT31;56762;49.494;11.768;2023-02-03T11:31:22;5.87;85.44
69543;SHT31;56762;49.494;11.768;2023-02-03T11:33:55;5.82;84.89
69543;SHT31;56762;49.494;11.768;2023-02-03T11:36:26;5.82;85.25
69543;SHT31;56762;49.494;11.768;2023-02-03T11:39:08;5.90;84.84
69543;SHT31;56762;49.494;11.768;2023-02-03T11:41:37;5.95;84.91
69543;SHT31;56762;49.494;11.768;2023-02-03T11:44:16;5.97;84.75
69543;SHT31;56762;49.494;11.768;2023-02-03T11:46:45;6.01;84.94
69543;SHT31;56762;49.494;11.768;2023-02-03T11:49:37;6.04;85.43
69543;SHT31;56762;49.494;11.768;2023-02-03T11:52:25;6.05;85.83
69543;SHT31;56762;49.494;11.768;2023-02-03T11:55:01;6.08;85.91
69543;SHT31;56762;49.494;11.768;2023-02-03T11:57:43;5.97;85.91
69543;SHT31;56762;49.494;11.768;2023-02-03T12:00:23;6.02;85.69
69543;SHT31;56762;49.494;11.768;2023-02-03T12:03:28;5.91;85.67
69543;SHT31;56762;49.494;11.768;2023-02-03T12:06:21;5.94;85.34
69543;SHT31;56762;49.494;11.768;2023-02-03T12:09:00;5.99;84.82
69543;SHT31;56762;49.494;11.768;2023-02-03T12:11:39;5.79;85.73
69543;SHT31;56762;49.494;11.768;2023-02-03T12:14:18;5.84;85.13
69543;SHT31;56762;49.494;11.768;2023-02-03T12:17:06;5.82;85.18
69543;SHT31;56762;49.494;11.768;2023-02-03T12:19:47;5.82;85.08
69543;SHT31;56762;49.494;11.768;2023-02-03T12:22:25;5.84;85.17
69543;SHT31;56762;49.494;11.768;2023-02-03T12:24:59;5.79;85.60
69543;SHT31;56762;49.494;11.768;2023-02-03T12:27:40;5.81;85.30
69543;SHT31;56762;49.494;11.768;2023-02-03T12:30:17;5.81;85.84
69543;SHT31;56762;49.494;11.768;2023-02-03T12:32:49;5.82;85.38
69543;SHT31;56762;49.494;11.768;2023-02-03T12:35:21;5.81;85.52
69543;SHT31;56762;49.494;11.768;2023-02-03T12:37:55;5.78;85.54
69543;SHT31;56762;49.494;11.768;2023-02-03T12:40:28;5.75;85.97
69543;SHT31;56762;49.494;11.768;2023-02-03T12:43:14;5.79;85.84
69543;SHT31;56762;49.494;11.768;2023-02-03T12:45:49;5.75;85.76
69543;SHT31;56762;49.494;11.768;2023-02-03T12:48:22;5.74;86.53
69543;SHT31;56762;49.494;11.768;2023-02-03T12:50:55;5.74;86.58
69543;SHT31;56762;49.494;11.768;2023-02-03T12:53:29;5.68;87.35
69543;SHT31;56762;49.494;11.768;2023-02-03T12:56:01;5.63;87.28
69543;SHT31;56762;49.494;11.768;2023-02-03T12:58:32;5.63;87.20
69543;SHT31;56762;49.494;11.768;2023-02-03T13:01:05;5.55;87.68
69543;SHT31;56762;49.494;11.768;2023-02-03T13:03:40;5.54;87.80
69543;SHT31;56762;49.494;11.768;2023-02-03T13:06:12;5.60;87.84
69543;SHT31;56762;49.494;11.768;2023-02-03T13:08:49;5.58;87.39
69543;SHT31;56762;49.494;11.768;2023-02-03T13:11:25;5.53;87.82
69543;SHT31;56762;49.494;11.768;2023-02-03T13:13:56;5.48;88.13
69543;SHT31;56762;49.494;11.768;2023-02-03T13:16:32;5.50;88.10
69543;SHT31;56762;49.494;11.768;2023-02-03T13:19:04;5.48;88.52
69543;SHT31;56762;49.494;11.768;2023-02-03T13:21:33;5.57;88.54
69543;SHT31;56762;49.494;11.768;2023-02-03T13:24:04;5.58;87.89
69543;SHT31;56762;49.494;11.768;2023-02-03T13:26:46;5.58;87.89
69543;SHT31;56762;49.494;11.768;2023-02-03T13:29:35;5.55;88.76
69543;SHT31;56762;49.494;11.768;2023-02-03T13:32:15;5.54;89.31
69543;SHT31;56762;49.494;11.768;2023-02-03T13:35:00;5.48;89.63
69543;SHT31;56762;49.494;11.768;2023-02-03T13:37:44;5.53;89.93
69543;SHT31;56762;49.494;11.768;2023-02-03T13:40:24;5.48;90.52
69543;SHT31;56762;49.494;11.768;2023-02-03T13:42:57;5.53;90.75
69543;SHT31;56762;49.494;11.768;2023-02-03T13:45:30;5.48;90.43
69543;SHT31;56762;49.494;11.768;2023-02-03T13:48:07;5.47;91.05
69543;SHT31;56762;49.494;11.768;2023-02-03T13:50:36;5.46;91.02
69543;SHT31;56762;49.494;11.768;2023-02-03T13:53:07;5.51;91.22
69543;SHT31;56762;49.494;11.768;2023-02-03T13:55:50;5.51;91.29
69543;SHT31;56762;49.494;11.768;2023-02-03T13:58:20;5.54;91.25
69543;SHT31;56762;49.494;11.768;2023-02-03T14:01:25;5.53;91.07
69543;SHT31;56762;49.494;11.768;2023-02-03T14:03:53;5.54;91.18
69543;SHT31;56762;49.494;11.768;2023-02-03T14:09:23;5.61;90.79
69543;SHT31;56762;49.494;11.768;2023-02-03T14:12:22;5.61;90.84
69543;SHT31;56762;49.494;11.768;2023-02-03T14:15:00;5.68;90.55
69543;SHT31;56762;49.494;11.768;2023-02-03T14:18:03;5.70;90.53
69543;SHT31;56762;49.494;11.768;2023-02-03T14:23:41;5.68;91.23
69543;SHT31;56762;49.494;11.768;2023-02-03T14:26:28;5.73;90.55
69543;SHT31;56762;49.494;11.768;2023-02-03T14:28:58;5.77;90.37
69543;SHT31;56762;49.494;11.768;2023-02-03T14:31:27;5.73;90.67
69543;SHT31;56762;49.494;11.768;2023-02-03T14:34:07;5.75;90.51
69543;SHT31;56762;49.494;11.768;2023-02-03T14:36:49;5.71;90.75
69543;SHT31;56762;49.494;11.768;2023-02-03T14:39:45;5.71;91.11
69543;SHT31;56762;49.494;11.768;2023-02-03T14:45:31;5.65;91.01
69543;SHT31;56762;49.494;11.768;2023-02-03T14:48:14;5.74;90.60
69543;SHT31;56762;49.494;11.768;2023-02-03T14:50:58;5.74;91.10
69543;SHT31;56762;49.494;11.768;2023-02-03T14:53:39;5.70;90.92
69543;SHT31;56762;49.494;11.768;2023-02-03T14:56:15;5.73;91.28
69543;SHT31;56762;49.494;11.768;2023-02-03T14:58:50;5.68;91.34
69543;SHT31;56762;49.494;11.768;2023-02-03T15:01:25;5.68;91.47
69543;SHT31;56762;49.494;11.768;2023-02-03T15:04:20;5.67;91.42
69543;SHT31;56762;49.494;11.768;2023-02-03T15:06:49;5.63;91.62
69543;SHT31;56762;49.494;11.768;2023-02-03T15:09:23;5.71;91.75
69543;SHT31;56762;49.494;11.768;2023-02-03T15:11:52;5.65;92.00
69543;SHT31;56762;49.494;11.768;2023-02-03T15:14:22;5.68;92.05
69543;SHT31;56762;49.494;11.768;2023-02-03T15:16:57;5.63;92.08
69543;SHT31;56762;49.494;11.768;2023-02-03T15:19:27;5.64;92.43
69543;SHT31;56762;49.494;11.768;2023-02-03T15:21:55;5.65;91.80
69543;SHT31;56762;49.494;11.768;2023-02-03T15:24:23;5.55;92.77
69543;SHT31;56762;49.494;11.768;2023-02-03T15:26:53;5.58;92.84
69543;SHT31;56762;49.494;11.768;2023-02-03T15:29:25;5.60;92.72
69543;SHT31;56762;49.494;11.768;2023-02-03T15:32:02;5.58;92.79
69543;SHT31;56762;49.494;11.768;2023-02-03T15:34:33;5.58;92.60
69543;SHT31;56762;49.494;11.768;2023-02-03T15:37:06;5.58;92.94
69543;SHT31;56762;49.494;11.768;2023-02-03T15:39:44;5.54;92.94
69543;SHT31;56762;49.494;11.768;2023-02-03T15:42:17;5.60;93.01
69543;SHT31;56762;49.494;11.768;2023-02-03T15:44:52;5.71;91.82
69543;SHT31;56762;49.494;11.768;2023-02-03T15:47:27;5.64;92.54
69543;SHT31;56762;49.494;11.768;2023-02-03T15:50:01;5.61;92.59
69543;SHT31;56762;49.494;11.768;2023-02-03T15:52:34;5.57;92.70
69543;SHT31;56762;49.494;11.768;2023-02-03T15:55:14;5.58;92.81
69543;SHT31;56762;49.494;11.768;2023-02-03T15:57:47;5.58;92.67
69543;SHT31;56762;49.494;11.768;2023-02-03T16:00:34;5.58;92.48
69543;SHT31;56762;49.494;11.768;2023-02-03T16:03:15;5.63;91.98
69543;SHT31;56762;49.494;11.768;2023-02-03T16:05:45;5.63;92.50
69543;SHT31;56762;49.494;11.768;2023-02-03T16:08:36;5.63;92.70
69543;SHT31;56762;49.494;11.768;2023-02-03T16:11:27;5.65;92.76